Terminal Aerodrome Forecast
Issued by NWS San Angelo, TX

Home | Current Version | Previous Version | Text Only | Print | Product List | Glossary On
Versions: 1 2 3 4 5 6 7 8 9 10 11 12 13 14 15 16 17 18
000
FTUS44 KSJT 050100 AAA
TAFABI
TAF AMD
KABI 050122Z 0501/0524 15012G20KT P6SM VCSH SCT030 BKN080
     FM050500 15016G24KT P6SM VCSH OVC025
     FM051100 16018G26KT P6SM OVC015
     FM051700 16020G30KT P6SM SCT025 BKN050=

USA.gov is the U.S. government's official web portal to all federal, state and local government web resources and services.